createdAt,value
2019-05-18T00:00:29.763Z,86.25
2019-05-18T00:01:29.735Z,86.25
2019-05-18T00:02:29.722Z,86.25
2019-05-18T00:03:29.723Z,86.51
2019-05-18T00:04:29.716Z,86.65
2019-05-18T00:05:29.729Z,86.55
2019-05-18T00:06:29.681Z,87.57
2019-05-18T00:07:29.679Z,87.57
2019-05-18T00:08:29.650Z,86.76
2019-05-18T00:09:29.652Z,86.65
2019-05-18T00:10:29.666Z,86.65
2019-05-18T00:11:29.621Z,86.65
2019-05-18T00:12:29.610Z,87.57
2019-05-18T00:13:29.601Z,87.26
2019-05-18T00:14:29.592Z,87.16
2019-05-18T00:15:29.610Z,87.26
2019-05-18T00:16:29.562Z,87.16
2019-05-18T00:17:29.547Z,87.37
2019-05-18T00:18:29.542Z,87.71
2019-05-18T00:19:29.528Z,87.47
2019-05-18T00:20:29.560Z,87.26
2019-05-18T00:21:29.528Z,86.90
2019-05-18T00:22:29.497Z,87.06
2019-05-18T00:23:29.483Z,87.30
2019-05-18T00:24:29.471Z,87.81
2019-05-18T00:25:29.465Z,87.47
2019-05-18T00:26:29.460Z,87.87
2019-05-18T00:27:29.431Z,87.71
2019-05-18T00:28:29.424Z,87.20
2019-05-18T00:29:29.416Z,87.30
2019-05-18T00:30:29.414Z,87.92
2019-05-18T00:31:29.412Z,87.71
2019-05-18T00:32:29.400Z,87.51
2019-05-18T00:33:29.381Z,87.61
2019-05-18T00:34:29.359Z,87.51
2019-05-18T00:35:29.355Z,87.71
2019-05-18T00:36:29.370Z,87.61
2019-05-18T00:37:29.330Z,87.71
2019-05-18T00:38:29.337Z,87.71
2019-05-18T00:39:29.322Z,87.81
2019-05-18T00:40:29.384Z,88.02
2019-05-18T00:41:29.301Z,87.75
2019-05-18T00:42:29.270Z,87.96
2019-05-18T00:43:29.281Z,87.96
2019-05-18T00:44:29.246Z,87.75
2019-05-18T00:45:29.234Z,87.85
2019-05-18T00:46:29.235Z,87.85
2019-05-18T00:47:40.851Z,88.36
2019-05-18T00:48:30.214Z,88.36
2019-05-18T00:49:29.203Z,88.36
2019-05-18T00:50:29.177Z,88.26
2019-05-18T00:51:29.178Z,88.46
2019-05-18T00:52:29.163Z,88.67
2019-05-18T00:53:29.168Z,88.87
2019-05-18T00:54:29.147Z,88.67
2019-05-18T00:55:29.116Z,88.67
2019-05-18T00:56:29.128Z,88.87
2019-05-18T00:57:29.097Z,88.57
2019-05-18T00:58:30.601Z,88.46
2019-05-18T00:59:29.074Z,88.57
2019-05-18T01:00:29.075Z,88.16
2019-05-18T01:01:29.080Z,88.20
2019-05-18T01:02:29.042Z,88.92
2019-05-18T01:03:29.033Z,88.92
2019-05-18T01:04:29.018Z,88.81
2019-05-18T01:05:29.014Z,88.71
2019-05-18T01:06:29.013Z,89.12
2019-05-18T01:07:28.985Z,88.71
2019-05-18T01:08:28.973Z,88.61
2019-05-18T01:09:28.965Z,89.01
2019-05-18T01:10:28.950Z,89.01
2019-05-18T01:11:28.957Z,89.12
2019-05-18T01:12:28.927Z,88.81
2019-05-18T01:13:28.919Z,89.32
2019-05-18T01:14:28.905Z,89.63
2019-05-18T01:15:28.905Z,89.53
2019-05-18T01:16:28.921Z,89.94
2019-05-18T01:17:28.889Z,89.12
2019-05-18T01:18:28.859Z,88.92
2019-05-18T01:19:28.848Z,89.63
2019-05-18T01:20:28.841Z,89.53
2019-05-18T01:21:28.824Z,89.42
2019-05-18T01:22:28.828Z,89.63
2019-05-18T01:23:28.802Z,89.77
2019-05-18T01:24:28.790Z,89.67
2019-05-18T01:25:28.778Z,89.67
2019-05-18T01:26:28.770Z,89.63
2019-05-18T01:27:28.780Z,89.47
2019-05-18T01:28:28.750Z,89.67
2019-05-18T01:29:28.737Z,89.36
2019-05-18T01:30:28.719Z,89.47
2019-05-18T01:31:28.713Z,89.77
2019-05-18T01:32:28.719Z,90.48
2019-05-18T01:33:28.692Z,89.47
2019-05-18T01:34:28.693Z,89.77
2019-05-18T01:35:28.670Z,90.08
2019-05-18T01:36:28.653Z,90.28
2019-05-18T01:37:28.665Z,89.87
2019-05-18T01:38:28.645Z,90.08
2019-05-18T01:39:28.621Z,89.67
2019-05-18T01:40:28.611Z,90.18
2019-05-18T01:41:28.597Z,90.18
2019-05-18T01:42:28.604Z,89.67
2019-05-18T01:43:28.577Z,89.97
2019-05-18T01:44:28.563Z,89.77
2019-05-18T01:45:28.561Z,89.92
2019-05-18T01:46:28.543Z,90.32
2019-05-18T01:47:28.552Z,90.32
2019-05-18T01:48:28.517Z,90.48
2019-05-18T01:49:28.507Z,90.53
2019-05-18T01:50:28.497Z,90.42
2019-05-18T01:51:28.501Z,90.42
2019-05-18T01:52:28.502Z,90.38
2019-05-18T01:53:28.516Z,90.63
2019-05-18T01:54:28.456Z,89.92
2019-05-18T01:55:28.443Z,90.22
2019-05-18T01:56:28.434Z,90.32
2019-05-18T01:57:28.450Z,90.73
2019-05-18T01:58:28.423Z,90.42
2019-05-18T01:59:28.397Z,90.32
2019-05-18T02:00:28.383Z,90.53
2019-05-18T02:01:28.369Z,90.01
2019-05-18T02:02:28.377Z,90.32
2019-05-18T02:03:28.353Z,90.63
2019-05-18T02:04:28.338Z,90.53
2019-05-18T02:05:28.332Z,90.53
2019-05-18T02:06:28.314Z,90.67
2019-05-18T02:07:28.320Z,90.53
2019-05-18T02:08:28.309Z,90.98
2019-05-18T02:09:28.285Z,90.63
2019-05-18T02:10:28.273Z,90.83
2019-05-18T02:11:28.264Z,90.73
2019-05-18T02:12:28.265Z,90.73
2019-05-18T02:13:28.242Z,90.94
2019-05-18T02:14:28.223Z,90.94
2019-05-18T02:15:28.218Z,90.73
2019-05-18T02:16:28.199Z,90.94
2019-05-18T02:17:28.227Z,90.98
2019-05-18T02:18:29.394Z,90.36
2019-05-18T02:19:28.176Z,90.32
2019-05-18T02:20:28.172Z,90.32
2019-05-18T02:21:28.141Z,90.73
2019-05-18T02:22:28.158Z,90.83
2019-05-18T02:23:28.118Z,90.67
2019-05-18T02:24:28.113Z,90.73
2019-05-18T02:25:28.112Z,90.67
2019-05-18T02:26:28.085Z,90.98
2019-05-18T02:27:28.122Z,90.73
2019-05-18T02:28:28.085Z,90.63
2019-05-18T02:29:28.054Z,90.73
2019-05-18T02:30:28.057Z,90.63
2019-05-18T02:31:28.036Z,90.77
2019-05-18T02:32:28.016Z,91.08
2019-05-18T02:33:28.027Z,90.98
2019-05-18T02:34:27.998Z,91.35
2019-05-18T02:35:27.994Z,90.98
2019-05-18T02:36:27.988Z,91.24
2019-05-18T02:37:27.967Z,91.28
2019-05-18T02:38:27.968Z,91.28
2019-05-18T02:39:27.950Z,91.28
2019-05-18T02:40:27.928Z,90.88
2019-05-18T02:41:27.917Z,90.88
2019-05-18T02:42:30.681Z,91.28
2019-05-18T02:43:27.920Z,91.18
2019-05-18T02:44:27.898Z,91.39
2019-05-18T02:45:27.877Z,91.18
2019-05-18T02:46:27.857Z,91.49
2019-05-18T02:47:27.854Z,91.39
2019-05-18T02:48:27.865Z,91.18
2019-05-18T02:49:27.831Z,91.69
2019-05-18T02:50:27.818Z,91.79
2019-05-18T02:51:27.803Z,91.39
2019-05-18T02:52:27.795Z,91.79
2019-05-18T02:53:27.807Z,91.79
2019-05-18T02:54:27.772Z,91.83
2019-05-18T02:55:27.759Z,91.79
2019-05-18T02:56:27.748Z,91.69
2019-05-18T02:57:27.736Z,91.59
2019-05-18T02:58:27.816Z,91.39
2019-05-18T02:59:27.713Z,91.18
2019-05-18T03:00:27.707Z,91.28
2019-05-18T03:01:27.694Z,91.49
2019-05-18T03:02:27.692Z,91.63
2019-05-18T03:03:27.700Z,91.69
2019-05-18T03:04:27.663Z,91.69
2019-05-18T03:05:27.648Z,91.83
2019-05-18T03:06:27.638Z,91.63
2019-05-18T03:07:27.628Z,91.83
2019-05-18T03:08:27.638Z,91.59
2019-05-18T03:09:27.601Z,91.28
2019-05-18T03:10:27.595Z,91.22
2019-05-18T03:11:27.580Z,91.28
2019-05-18T03:12:27.570Z,91.89
2019-05-18T03:13:27.579Z,91.69
2019-05-18T03:14:27.549Z,91.43
2019-05-18T03:15:27.544Z,91.28
2019-05-18T03:16:27.528Z,91.43
2019-05-18T03:17:27.515Z,91.22
2019-05-18T03:18:27.586Z,91.74
2019-05-18T03:19:27.497Z,91.83
2019-05-18T03:20:27.482Z,91.74
2019-05-18T03:21:27.474Z,91.22
2019-05-18T03:22:27.466Z,91.33
2019-05-18T03:23:27.459Z,91.63
2019-05-18T03:24:27.437Z,91.63
2019-05-18T03:25:27.418Z,91.22
2019-05-18T03:26:27.415Z,91.63
2019-05-18T03:27:27.409Z,91.12
2019-05-18T03:28:27.437Z,91.22
2019-05-18T03:29:27.394Z,91.74
2019-05-18T03:30:27.381Z,91.33
2019-05-18T03:31:27.354Z,91.83
2019-05-18T03:32:27.360Z,91.83
2019-05-18T03:33:29.651Z,91.22
2019-05-18T03:34:27.383Z,91.22
2019-05-18T03:35:27.308Z,91.53
2019-05-18T03:36:27.310Z,91.33
2019-05-18T03:37:27.292Z,91.33
2019-05-18T03:38:27.285Z,91.22
2019-05-18T03:39:27.288Z,91.02
2019-05-18T03:40:27.252Z,90.71
2019-05-18T03:41:27.239Z,91.02
2019-05-18T03:42:27.234Z,91.12
2019-05-18T03:43:27.229Z,91.02
2019-05-18T03:44:27.239Z,91.22
2019-05-18T03:45:27.201Z,91.22
2019-05-18T03:46:27.185Z,91.33
2019-05-18T03:47:27.179Z,91.12
2019-05-18T03:48:27.166Z,91.33
2019-05-18T03:49:27.811Z,91.33
2019-05-18T03:50:27.150Z,91.33
2019-05-18T03:51:27.130Z,91.83
2019-05-18T03:52:27.111Z,91.74
2019-05-18T03:53:27.106Z,91.39
2019-05-18T03:54:27.112Z,91.74
2019-05-18T03:55:27.100Z,91.22
2019-05-18T03:56:27.162Z,91.22
2019-05-18T03:57:27.068Z,91.43
2019-05-18T03:58:27.056Z,91.02
2019-05-18T03:59:27.062Z,91.39
2019-05-18T04:00:27.031Z,91.22
2019-05-18T04:01:27.017Z,91.74
2019-05-18T04:02:27.010Z,91.28
2019-05-18T04:03:26.992Z,91.18
2019-05-18T04:04:27.005Z,91.49
2019-05-18T04:05:26.977Z,91.08
2019-05-18T04:06:26.964Z,91.18
2019-05-18T04:07:26.951Z,91.18
2019-05-18T04:08:26.944Z,91.18
2019-05-18T04:09:26.948Z,91.08
2019-05-18T04:10:26.918Z,91.18
2019-05-18T04:11:26.900Z,90.98
2019-05-18T04:12:26.896Z,91.28
2019-05-18T04:13:26.886Z,91.28
2019-05-18T04:14:26.887Z,91.18
2019-05-18T04:15:26.866Z,91.08
2019-05-18T04:16:26.845Z,91.39
2019-05-18T04:17:26.841Z,90.73
2019-05-18T04:18:26.825Z,90.88
2019-05-18T04:19:44.742Z,90.53
2019-05-18T04:20:27.797Z,90.67
2019-05-18T04:21:26.803Z,90.98
2019-05-18T04:22:26.779Z,90.98
2019-05-18T04:23:26.785Z,91.08
2019-05-18T04:24:26.785Z,91.24
2019-05-18T04:25:26.743Z,91.39
2019-05-18T04:26:26.734Z,90.98
2019-05-18T04:27:26.727Z,91.49
2019-05-18T04:28:26.708Z,91.28
2019-05-18T04:29:26.714Z,91.18
2019-05-18T04:30:26.687Z,91.69
2019-05-18T04:31:26.676Z,91.49
2019-05-18T04:32:26.664Z,91.18
2019-05-18T04:33:26.677Z,91.65
2019-05-18T04:34:26.654Z,91.69
2019-05-18T04:35:26.632Z,91.55
2019-05-18T04:36:26.716Z,91.49
2019-05-18T04:37:26.604Z,91.59
2019-05-18T04:38:26.613Z,91.69
2019-05-18T04:39:26.601Z,91.69
2019-05-18T04:40:26.588Z,91.49
2019-05-18T04:41:26.564Z,91.65
2019-05-18T04:42:26.553Z,91.49
2019-05-18T04:43:26.548Z,92.10
2019-05-18T04:44:26.543Z,92.10
2019-05-18T04:45:26.517Z,92.26
2019-05-18T04:46:26.508Z,92.05
2019-05-18T04:47:26.507Z,92.05
2019-05-18T04:48:26.485Z,91.96
2019-05-18T04:49:26.499Z,91.75
2019-05-18T04:50:26.460Z,92.05
2019-05-18T04:51:26.501Z,92.05
2019-05-18T04:52:26.441Z,91.65
2019-05-18T04:53:26.428Z,91.35
2019-05-18T04:54:26.432Z,92.05
2019-05-18T04:55:26.421Z,92.00
2019-05-18T04:56:26.399Z,91.85
2019-05-18T04:57:26.387Z,91.96
2019-05-18T04:58:26.376Z,92.05
2019-05-18T04:59:26.390Z,91.96
2019-05-18T05:00:26.345Z,92.16
2019-05-18T05:01:26.341Z,92.05
2019-05-18T05:02:26.330Z,91.96
2019-05-18T05:03:26.318Z,92.05
2019-05-18T05:04:26.319Z,91.35
2019-05-18T05:05:26.292Z,91.65
2019-05-18T05:06:26.284Z,91.50
2019-05-18T05:07:26.271Z,91.35
2019-05-18T05:08:26.257Z,91.09
2019-05-18T05:09:26.263Z,91.09
2019-05-18T05:10:26.236Z,91.09
2019-05-18T05:11:26.237Z,91.71
2019-05-18T05:12:26.285Z,91.50
2019-05-18T05:13:26.216Z,91.50
2019-05-18T05:14:27.097Z,91.09
2019-05-18T05:15:26.231Z,91.40
2019-05-18T05:16:26.191Z,91.16
2019-05-18T05:17:26.219Z,90.99
2019-05-18T05:18:26.302Z,90.55
2019-05-18T05:19:26.172Z,90.75
2019-05-18T05:20:26.769Z,90.75
2019-05-18T05:21:26.485Z,90.85
2019-05-18T05:22:26.111Z,90.50
2019-05-18T05:23:26.085Z,90.55
2019-05-18T05:24:26.447Z,90.55
2019-05-18T05:25:26.614Z,90.70
2019-05-18T05:26:26.078Z,90.60
2019-05-18T05:27:26.184Z,90.36
2019-05-18T05:28:26.159Z,90.36
2019-05-18T05:29:26.103Z,90.05
2019-05-18T05:30:26.080Z,90.22
2019-05-18T05:31:26.040Z,90.01
2019-05-18T05:32:26.065Z,89.50
2019-05-18T05:33:25.974Z,89.50
2019-05-18T05:34:26.067Z,89.91
2019-05-18T05:35:25.948Z,89.91
2019-05-18T05:36:25.940Z,89.30
2019-05-18T05:37:25.931Z,89.46
2019-05-18T05:38:25.915Z,89.46
2019-05-18T05:39:25.933Z,88.54
2019-05-18T05:40:25.899Z,88.44
2019-05-18T05:41:25.885Z,88.04
2019-05-18T05:42:25.879Z,87.69
2019-05-18T05:43:25.863Z,87.59
2019-05-18T05:44:25.870Z,87.08
2019-05-18T05:45:25.835Z,86.57
2019-05-18T05:46:25.827Z,86.16
2019-05-18T05:47:25.817Z,86.16
2019-05-18T05:48:25.812Z,85.86
2019-05-18T05:49:25.817Z,85.62
2019-05-18T05:50:35.367Z,84.91
2019-05-18T05:51:26.810Z,84.80
2019-05-18T05:52:25.757Z,85.58
2019-05-18T05:53:25.747Z,84.36
2019-05-18T05:54:25.770Z,83.95
2019-05-18T05:55:25.725Z,83.95
2019-05-18T05:56:25.709Z,84.32
2019-05-18T05:57:25.705Z,83.20
2019-05-18T05:58:25.729Z,82.70
2019-05-18T05:59:25.727Z,82.59
2019-05-18T06:00:25.663Z,82.19
2019-05-18T06:01:25.663Z,82.09
2019-05-18T06:02:25.648Z,81.85
2019-05-18T06:03:25.631Z,81.24
2019-05-18T06:04:25.649Z,80.93
2019-05-18T06:05:25.624Z,80.93
2019-05-18T06:06:25.594Z,80.39
2019-05-18T06:07:25.592Z,80.69
2019-05-18T06:08:25.595Z,79.98
2019-05-18T06:09:25.600Z,79.88
2019-05-18T06:10:25.560Z,79.38
2019-05-18T06:11:25.538Z,78.63
2019-05-18T06:12:25.535Z,78.73
2019-05-18T06:13:25.521Z,78.22
2019-05-18T06:14:25.516Z,78.63
2019-05-18T06:15:25.520Z,77.51
2019-05-18T06:16:25.479Z,77.51
2019-05-18T06:17:25.469Z,77.68
2019-05-18T06:18:25.469Z,77.48
2019-05-18T06:19:25.453Z,77.28
2019-05-18T06:20:25.455Z,77.17
2019-05-18T06:21:25.425Z,76.56
2019-05-18T06:22:25.414Z,77.28
2019-05-18T06:23:25.402Z,77.03
2019-05-18T06:24:25.393Z,77.03
2019-05-18T06:25:25.404Z,76.73
2019-05-18T06:26:25.382Z,75.52
2019-05-18T06:27:25.368Z,75.31
2019-05-18T06:28:25.344Z,73.90
2019-05-18T06:29:25.338Z,74.37
2019-05-18T06:30:25.355Z,74.37
2019-05-18T06:31:25.313Z,74.07
2019-05-18T06:32:25.306Z,73.83
2019-05-18T06:33:25.296Z,73.83
2019-05-18T06:34:25.286Z,74.03
2019-05-18T06:35:25.381Z,72.92
2019-05-18T06:36:25.269Z,69.68
2019-05-18T06:37:25.261Z,69.98
2019-05-18T06:38:25.235Z,69.78
2019-05-18T06:39:25.223Z,69.24
2019-05-18T06:40:25.243Z,68.84
2019-05-18T06:41:25.200Z,69.34
2019-05-18T06:42:25.187Z,68.33
2019-05-18T06:43:25.179Z,69.14
2019-05-18T06:44:25.170Z,69.01
2019-05-18T06:45:25.191Z,69.62
2019-05-18T06:46:25.143Z,68.10
2019-05-18T06:47:25.127Z,67.60
2019-05-18T06:48:25.117Z,66.69
2019-05-18T06:49:25.127Z,67.60
2019-05-18T06:50:25.120Z,67.80
2019-05-18T06:51:25.115Z,67.60
2019-05-18T06:52:25.097Z,67.69
2019-05-18T06:53:25.064Z,67.09
2019-05-18T06:54:25.051Z,67.06
2019-05-18T06:55:25.046Z,66.86
2019-05-18T06:56:25.051Z,66.86
2019-05-18T06:57:25.020Z,67.23
2019-05-18T06:58:25.008Z,67.02
2019-05-18T06:59:24.999Z,66.82
2019-05-18T07:00:24.984Z,66.82
2019-05-18T07:01:24.988Z,66.99
2019-05-18T07:02:24.962Z,66.89
2019-05-18T07:03:24.991Z,66.99
2019-05-18T07:04:24.947Z,66.49
2019-05-18T07:05:24.993Z,65.45
2019-05-18T07:06:25.006Z,65.55
2019-05-18T07:07:24.922Z,64.95
2019-05-18T07:08:24.892Z,64.84
2019-05-18T07:09:24.889Z,64.51
2019-05-18T07:10:24.869Z,65.01
2019-05-18T07:11:24.887Z,65.01
2019-05-18T07:12:24.878Z,64.31
2019-05-18T07:13:24.858Z,64.28
2019-05-18T07:14:26.134Z,63.98
2019-05-18T07:15:24.813Z,63.78
2019-05-18T07:16:24.803Z,64.38
2019-05-18T07:17:24.803Z,62.87
2019-05-18T07:18:24.788Z,63.17
2019-05-18T07:19:24.773Z,62.97
2019-05-18T07:20:24.756Z,63.07
2019-05-18T07:21:24.743Z,62.77
2019-05-18T07:22:24.756Z,62.94
2019-05-18T07:23:24.718Z,63.54
2019-05-18T07:24:24.714Z,62.54
2019-05-18T07:25:24.709Z,64.45
2019-05-18T07:26:24.721Z,63.04
2019-05-18T07:27:24.697Z,63.85
2019-05-18T07:28:24.675Z,61.60
2019-05-18T07:29:24.655Z,61.50
2019-05-18T07:30:24.645Z,59.89
2019-05-18T07:31:24.634Z,60.60
2019-05-18T07:32:24.638Z,60.09
2019-05-18T07:33:24.607Z,60.36
2019-05-18T09:07:47.058Z,51.17
2019-05-18T09:08:47.031Z,51.27
2019-05-18T09:09:47.043Z,51.46
2019-05-18T09:10:47.004Z,51.37
2019-05-18T09:11:47.004Z,51.87
2019-05-18T09:12:46.989Z,51.37
2019-05-18T09:13:46.979Z,50.94
2019-05-18T09:14:46.991Z,52.17
2019-05-18T09:15:46.955Z,51.04
2019-05-18T09:16:46.945Z,51.44
2019-05-18T09:17:46.931Z,51.04
2019-05-18T09:18:46.916Z,50.64
2019-05-18T09:19:46.936Z,50.22
2019-05-18T09:20:46.895Z,50.12
2019-05-18T09:21:46.880Z,49.72
2019-05-18T09:22:46.879Z,50.42
2019-05-18T09:23:46.864Z,49.91
2019-05-18T09:24:46.872Z,49.91
2019-05-18T09:25:46.848Z,50.62
2019-05-18T09:26:46.851Z,50.59
2019-05-18T09:27:46.821Z,50.62
2019-05-18T09:28:46.820Z,50.20
2019-05-18T09:29:46.815Z,50.09
2019-05-18T09:30:46.781Z,50.29
2019-05-18T09:31:46.770Z,49.40
2019-05-18T09:32:46.780Z,49.27
2019-05-18T09:33:46.753Z,48.57
2019-05-18T09:34:46.763Z,49.47
2019-05-18T09:35:46.727Z,48.97
2019-05-18T09:36:46.719Z,49.47
2019-05-18T09:37:46.707Z,49.87
2019-05-18T09:38:47.579Z,49.17
2019-05-18T09:39:47.512Z,48.27
2019-05-18T09:40:46.677Z,48.47
2019-05-18T09:41:46.665Z,49.15
2019-05-18T09:42:46.649Z,48.97
2019-05-18T09:43:46.671Z,48.25
2019-05-18T09:44:46.679Z,49.65
2019-05-18T09:45:46.620Z,48.25
2019-05-18T09:46:46.605Z,48.55
2019-05-18T09:47:46.596Z,46.95
2019-05-18T09:48:46.589Z,47.55
2019-05-18T09:49:46.584Z,46.95
2019-05-18T09:50:46.559Z,46.95
2019-05-18T09:51:46.551Z,46.35
2019-05-18T09:52:46.697Z,46.55
2019-05-18T09:53:51.523Z,47.45
2019-05-18T09:54:47.535Z,46.05
2019-05-18T09:55:46.505Z,46.73
2019-05-18T09:56:46.492Z,46.05
2019-05-18T09:57:46.487Z,47.72
2019-05-18T09:58:46.465Z,47.25
2019-05-18T09:59:46.460Z,46.62
2019-05-18T10:00:46.459Z,45.93
2019-05-18T11:29:12.118Z,31.92
2019-05-18T11:30:12.032Z,29.82
2019-05-18T11:31:12.010Z,28.91
2019-05-18T11:32:12.015Z,29.06
2019-05-18T11:33:12.017Z,27.69
2019-05-18T11:34:11.979Z,27.55
2019-05-18T11:35:11.963Z,27.94
2019-05-18T11:36:11.952Z,27.80
2019-05-18T11:37:11.965Z,27.30
2019-05-18T11:38:11.937Z,25.71
2019-05-18T11:39:11.929Z,24.93
2019-05-18T11:40:11.943Z,24.23
2019-05-18T11:41:11.913Z,23.82
2019-05-18T11:42:12.109Z,23.22
2019-05-18T11:43:11.903Z,23.79
2019-05-18T11:44:11.907Z,23.39
2019-05-18T11:45:11.904Z,23.58
2019-05-18T11:46:11.877Z,23.30
2019-05-18T11:47:11.898Z,23.59
2019-05-18T11:48:11.866Z,23.33
2019-05-18T11:49:11.841Z,23.91
2019-05-18T11:50:11.850Z,24.01
2019-05-18T11:51:11.822Z,22.45
2019-05-18T11:52:11.837Z,23.35
2019-05-18T11:53:11.800Z,23.15
2019-05-18T11:54:11.792Z,23.36
2019-05-18T11:55:11.784Z,23.47
2019-05-18T11:56:11.774Z,24.76
2019-05-18T11:57:11.830Z,24.57
2019-05-18T11:58:11.765Z,26.20
2019-05-18T11:59:15.377Z,27.25
2019-05-18T12:00:12.522Z,28.41
2019-05-18T12:01:11.731Z,31.13
2019-05-18T12:02:11.723Z,30.68
2019-05-18T12:03:11.745Z,31.90
2019-05-18T12:04:11.726Z,32.88
2019-05-18T12:05:11.697Z,33.23
2019-05-18T12:06:11.681Z,32.90
2019-05-18T12:07:11.686Z,31.59
2019-05-18T12:08:11.685Z,34.46
2019-05-18T12:09:11.674Z,31.57
2019-05-18T12:10:11.636Z,33.29
2019-05-18T12:11:11.636Z,31.48
2019-05-18T12:12:11.628Z,31.24
2019-05-18T12:13:11.627Z,32.77
2019-05-18T12:14:11.598Z,29.00
2019-05-18T12:15:11.596Z,30.82
2019-05-18T12:16:11.572Z,31.65
2019-05-18T12:17:11.583Z,32.64
2019-05-18T12:18:11.576Z,32.93
2019-05-18T12:19:11.546Z,34.63
2019-05-18T12:20:11.529Z,34.86
2019-05-18T12:21:11.518Z,36.15
2019-05-18T12:22:11.509Z,36.76
2019-05-18T12:23:11.524Z,35.98
2019-05-18T12:24:15.307Z,37.09
2019-05-18T12:25:11.482Z,38.18
2019-05-18T12:26:11.468Z,35.71
2019-05-18T12:27:11.458Z,35.72
2019-05-18T12:28:11.449Z,36.20
2019-05-18T12:29:11.456Z,36.60
2019-05-18T12:30:11.425Z,36.41
2019-05-18T12:31:11.494Z,34.94
2019-05-18T12:32:11.399Z,36.07
2019-05-18T12:33:11.390Z,37.98
2019-05-18T12:34:11.389Z,40.88
2019-05-18T12:35:11.379Z,38.89
2019-05-18T12:36:11.407Z,39.40
2019-05-18T12:37:11.342Z,39.70
2019-05-18T12:38:11.335Z,37.92
2019-05-18T12:39:11.339Z,37.10
2019-05-18T12:40:11.370Z,38.18
2019-05-18T12:41:11.317Z,38.49
2019-05-18T12:42:11.292Z,37.51
2019-05-18T12:43:11.278Z,37.60
2019-05-18T12:44:11.315Z,39.29
2019-05-18T12:45:11.257Z,39.01
2019-05-18T12:46:11.255Z,39.01
2019-05-18T12:47:14.270Z,43.11
2019-05-18T12:48:11.217Z,38.93
2019-05-18T12:49:11.233Z,39.11
2019-05-18T12:50:11.198Z,39.70
2019-05-18T12:51:11.194Z,39.31
2019-05-18T12:52:11.189Z,38.29
2019-05-18T12:53:11.165Z,40.48
2019-05-18T12:54:11.180Z,40.78
2019-05-18T12:55:11.145Z,38.20
2019-05-18T12:56:11.132Z,39.09
2019-05-18T12:57:11.120Z,38.18
2019-05-18T12:58:11.119Z,39.67
2019-05-18T12:59:11.128Z,39.78
2019-05-18T13:00:11.094Z,41.08
2019-05-18T13:01:11.081Z,40.90
2019-05-18T13:02:11.071Z,39.78
2019-05-18T13:03:11.062Z,39.40
2019-05-18T13:04:11.086Z,39.39
2019-05-18T13:05:11.032Z,39.25
2019-05-18T13:06:11.020Z,37.94
2019-05-18T13:07:11.026Z,37.62
2019-05-18T13:08:10.995Z,38.30
2019-05-18T13:09:11.007Z,37.88
2019-05-18T13:10:11.015Z,36.77
2019-05-18T13:11:10.971Z,36.22
2019-05-18T13:12:11.838Z,36.13
2019-05-18T13:13:10.945Z,36.87
2019-05-18T13:14:10.935Z,35.95
2019-05-18T13:15:10.941Z,35.85
2019-05-18T13:16:10.923Z,37.56
2019-05-18T13:17:10.902Z,36.66
2019-05-18T13:18:10.894Z,37.43
2019-05-18T13:19:10.886Z,37.64
2019-05-18T13:20:13.545Z,37.79
2019-05-18T13:21:10.857Z,33.21
2019-05-18T13:22:10.861Z,36.98
2019-05-18T13:23:10.842Z,35.54
2019-05-18T13:24:10.823Z,36.17
2019-05-18T13:25:10.830Z,38.87
2019-05-18T13:26:10.811Z,39.69
2019-05-18T13:27:10.795Z,39.42
2019-05-18T13:28:10.779Z,37.25
2019-05-18T13:29:10.779Z,39.04
2019-05-18T13:30:10.788Z,36.14
2019-05-18T13:31:10.746Z,38.33
2019-05-18T13:32:10.748Z,38.53
2019-05-18T13:33:10.742Z,38.63
2019-05-18T13:34:10.715Z,38.23
2019-05-18T13:35:10.725Z,39.23
2019-05-18T13:36:10.699Z,36.12
2019-05-18T13:37:10.678Z,38.63
2019-05-18T13:38:10.674Z,39.32
2019-05-18T13:39:10.658Z,38.23
2019-05-18T13:40:10.685Z,38.21
2019-05-18T13:41:10.644Z,35.72
2019-05-18T13:42:10.626Z,36.10
2019-05-18T13:43:10.620Z,36.40
2019-05-18T13:44:10.608Z,36.90
2019-05-18T13:45:10.623Z,33.72
2019-05-18T13:46:10.641Z,34.81
2019-05-18T13:47:10.574Z,35.11
2019-05-18T13:48:10.559Z,35.89
2019-05-18T13:49:10.558Z,36.38
2019-05-18T13:50:10.564Z,37.28
2019-05-18T13:51:10.524Z,34.59
2019-05-18T13:52:10.513Z,37.28
2019-05-18T13:53:10.501Z,34.80
2019-05-18T13:54:10.489Z,35.49
2019-05-18T13:55:10.527Z,35.89
2019-05-18T13:56:10.470Z,37.28
2019-05-18T13:57:10.463Z,35.39
2019-05-18T13:58:10.449Z,36.19
2019-05-18T13:59:10.451Z,37.36
2019-05-18T14:00:10.423Z,37.36
2019-05-18T14:01:10.432Z,36.87
2019-05-18T14:02:10.401Z,37.13
2019-05-18T14:03:10.393Z,34.94
2019-05-18T14:04:10.383Z,33.45
2019-05-18T14:05:10.388Z,33.62
2019-05-18T14:06:10.397Z,33.52
2019-05-18T14:07:10.367Z,31.74
2019-05-18T14:08:15.488Z,33.92
2019-05-18T14:09:11.344Z,35.03
2019-05-18T14:10:12.433Z,33.45
2019-05-18T14:11:10.337Z,35.06
2019-05-18T14:12:10.303Z,33.67
2019-05-18T14:13:10.297Z,33.45
2019-05-18T14:14:10.271Z,34.45
2019-05-18T14:15:10.262Z,35.26
2019-05-18T14:16:10.593Z,35.95
2019-05-18T14:17:10.239Z,33.67
2019-05-18T14:18:10.237Z,33.57
2019-05-18T14:19:10.214Z,32.99
2019-05-18T14:20:10.239Z,34.58
2019-05-18T14:21:10.198Z,33.47
2019-05-18T14:22:10.203Z,33.57
2019-05-18T14:23:10.172Z,34.15
2019-05-18T14:24:10.167Z,34.27
2019-05-18T14:25:19.481Z,34.36
2019-05-18T14:26:11.137Z,33.69
2019-05-18T14:27:10.152Z,34.59
2019-05-18T14:28:10.124Z,34.99
2019-05-18T14:29:10.114Z,36.98
2019-05-18T14:30:10.104Z,35.49
2019-05-18T14:31:10.087Z,36.07
2019-05-18T14:32:11.053Z,32.99
2019-05-18T14:33:10.065Z,32.05
2019-05-18T14:34:10.050Z,30.93
2019-05-18T14:35:10.056Z,29.71
2019-05-18T14:36:10.072Z,29.61
2019-05-18T14:37:10.048Z,31.69
2019-05-18T14:38:10.003Z,30.41
2019-05-18T14:39:09.997Z,30.65
2019-05-18T14:40:09.987Z,32.24
2019-05-18T14:41:09.980Z,31.27
2019-05-18T14:42:09.989Z,33.37
2019-05-18T14:43:09.976Z,33.47
2019-05-18T14:44:09.939Z,32.39
2019-05-18T14:45:09.954Z,33.48
2019-05-18T14:46:09.915Z,35.89
2019-05-18T14:47:09.907Z,34.89
2019-05-18T14:48:10.001Z,36.58
2019-05-18T14:49:09.885Z,35.80
2019-05-18T14:50:09.881Z,35.13
2019-05-18T14:51:09.874Z,35.13
2019-05-18T14:52:12.132Z,33.14
2019-05-18T14:53:09.859Z,35.22
2019-05-18T14:54:09.830Z,33.34
2019-05-18T14:55:09.831Z,36.83
2019-05-18T14:56:09.802Z,35.52
2019-05-18T14:57:09.794Z,37.62
2019-05-18T14:58:09.820Z,37.63
2019-05-18T14:59:09.785Z,35.46
2019-05-18T15:00:09.799Z,35.75
2019-05-18T15:01:09.749Z,36.25
2019-05-18T15:02:09.747Z,37.77
2019-05-18T15:03:09.735Z,37.57
2019-05-18T15:04:09.730Z,37.95
2019-05-18T15:05:09.727Z,37.67
2019-05-18T15:06:09.695Z,36.85
2019-05-18T15:07:09.684Z,37.05
2019-05-18T15:08:09.674Z,36.46
2019-05-18T15:09:09.680Z,37.25
2019-05-18T15:10:09.665Z,35.86
2019-05-18T15:11:09.640Z,37.35
2019-05-18T15:12:09.632Z,36.35
2019-05-18T15:13:09.615Z,37.85
2019-05-18T15:14:09.626Z,36.25
2019-05-18T15:15:09.597Z,38.15
2019-05-18T15:16:09.591Z,37.27
2019-05-18T15:17:09.570Z,36.95
2019-05-18T15:18:09.565Z,35.66
2019-05-18T15:19:09.561Z,35.97
2019-05-18T15:20:09.539Z,37.29
2019-05-18T15:21:09.533Z,37.98
2019-05-18T15:22:09.531Z,37.19
2019-05-18T15:23:09.525Z,38.18
2019-05-18T15:24:09.521Z,37.49
2019-05-18T15:25:09.484Z,36.09
2019-05-18T15:26:09.477Z,36.27
2019-05-18T15:27:09.473Z,36.37
2019-05-18T15:28:09.452Z,36.87
2019-05-18T15:29:09.456Z,39.06
2019-05-18T15:30:09.430Z,37.07
2019-05-18T15:31:09.415Z,38.07
2019-05-18T15:32:09.406Z,38.78
2019-05-18T15:33:09.398Z,37.87
2019-05-18T15:34:09.398Z,35.97
2019-05-18T15:35:09.376Z,36.46
2019-05-18T15:36:09.360Z,37.34
2019-05-18T15:37:09.362Z,37.05
2019-05-18T15:38:09.344Z,36.24
2019-05-18T15:39:09.352Z,35.66
2019-05-18T15:40:09.317Z,35.74
2019-05-18T15:41:09.314Z,35.34
2019-05-18T15:42:09.291Z,37.23
2019-05-18T15:43:09.278Z,36.54
2019-05-18T15:44:09.299Z,37.63
2019-05-18T15:45:09.280Z,38.05
2019-05-18T15:46:09.250Z,37.77
2019-05-18T15:47:09.247Z,37.77
2019-05-18T15:48:09.226Z,37.67
2019-05-18T15:49:09.261Z,37.27
2019-05-18T15:50:09.206Z,36.27
2019-05-18T15:51:09.201Z,36.97
2019-05-18T15:52:09.182Z,37.17
2019-05-18T15:53:09.166Z,38.29